KCLS/CLS METAR and TAF weather

Enter ICAO airport designator
Station Type Date Time Source
KCLS METAR 2020/02/27 13:55 UTC NOAA

KCLS 271355Z AUTO 00000KT 1/4SM FG OVC004 01/01 A3048 RMK AO2


Station Type Date Time Source
KCLS Decoded METAR 2020/02/27 13:55 UTC NOAA

Station name not available
Feb 27, 2020 - 08:55 AM EST / 2020.02.27 1355 UTC
Wind: Calm:0
Visibility: 1/4 mile(s):0
Sky conditions: overcast
Weather: fog
Temperature: 33 F (1 C)
Dew Point: 33 F (1 C)
Relative Humidity: 100%
Pressure (altimeter): 30.48 in. Hg (1032 hPa)
ob: KCLS 271355Z AUTO 00000KT 1/4SM FG OVC004 01/01 A3048 RMK AO2
cycle: 14

Station Type Date Time Source
KCLS TAF UTC NOAA

Error!

Example: see airport list